createdAt,value
2023-04-17T00:01:11.801Z,49.07
2023-04-17T00:03:39.534Z,50.37
2023-04-17T00:06:08.381Z,52.60
2023-04-17T00:08:36.164Z,51.63
2023-04-17T00:11:08.119Z,51.23
2023-04-17T00:13:37.591Z,46.60
2023-04-17T00:16:06.116Z,50.40
2023-04-17T00:18:33.777Z,41.77
2023-04-17T00:21:01.395Z,43.90
2023-04-17T00:23:29.072Z,53.47
2023-04-17T00:25:56.694Z,52.33
2023-04-17T00:28:24.698Z,47.13
2023-04-17T00:30:52.957Z,52.73
2023-04-17T00:33:20.902Z,49.50
2023-04-17T00:35:49.092Z,48.03
2023-04-17T00:38:17.420Z,45.80
2023-04-17T00:40:46.377Z,49.37
2023-04-17T00:43:14.107Z,45.70
2023-04-17T00:45:42.612Z,44.77
2023-04-17T00:48:13.505Z,42.10
2023-04-17T00:50:44.912Z,45.07
2023-04-17T00:53:14.643Z,43.70
2023-04-17T00:55:48.350Z,41.73
2023-04-17T00:58:16.591Z,45.10
2023-04-17T01:00:44.991Z,47.87
2023-04-17T01:03:13.378Z,50.33
2023-04-17T01:05:42.229Z,46.50
2023-04-17T01:08:10.821Z,51.33
2023-04-17T01:10:38.553Z,44.60
2023-04-17T01:13:08.947Z,43.40
2023-04-17T01:15:39.741Z,46.03
2023-04-17T01:18:07.762Z,45.00
2023-04-17T01:20:36.228Z,45.53
2023-04-17T01:23:04.269Z,42.80
2023-04-17T01:25:32.343Z,44.87
2023-04-17T01:28:00.369Z,43.63
2023-04-17T01:30:30.039Z,47.87
2023-04-17T01:33:04.346Z,51.27
2023-04-17T01:35:32.093Z,52.40
2023-04-17T01:37:59.902Z,47.93
2023-04-17T01:40:28.492Z,48.30
2023-04-17T01:42:56.245Z,45.90
2023-04-17T01:45:23.901Z,51.20
2023-04-17T01:47:51.936Z,48.73
2023-04-17T01:50:20.141Z,50.50
2023-04-17T01:52:48.455Z,51.63
2023-04-17T01:55:16.167Z,45.70
2023-04-17T01:57:43.849Z,48.13
2023-04-17T02:00:12.589Z,48.40
2023-04-17T02:02:41.210Z,53.87
2023-04-17T02:05:09.463Z,43.10
2023-04-17T02:07:38.015Z,56.30
2023-04-17T02:10:06.891Z,53.07
2023-04-17T02:12:34.615Z,48.07
2023-04-17T02:15:02.320Z,52.77
2023-04-17T02:17:33.113Z,46.50
2023-04-17T02:20:07.762Z,45.27
2023-04-17T02:22:38.329Z,60.53
2023-04-17T02:25:07.208Z,52.37
2023-04-17T02:27:34.862Z,49.70
2023-04-17T02:30:03.862Z,50.87
2023-04-17T02:32:31.682Z,47.87
2023-04-17T02:34:59.454Z,56.33
2023-04-17T02:37:27.223Z,49.00
2023-04-17T02:39:57.270Z,53.20
2023-04-17T02:42:25.053Z,51.13
2023-04-17T02:44:54.083Z,52.53
2023-04-17T02:47:23.050Z,54.90
2023-04-17T02:49:51.249Z,52.77
2023-04-17T02:52:19.479Z,55.50
2023-04-17T02:54:47.414Z,56.27
2023-04-17T02:57:15.466Z,49.83
2023-04-17T02:59:43.203Z,61.90
2023-04-17T03:02:11.635Z,54.97
2023-04-17T03:04:39.375Z,53.53
2023-04-17T03:07:07.228Z,63.13
2023-04-17T03:09:35.128Z,53.03
2023-04-17T03:12:05.923Z,55.97
2023-04-17T03:14:33.667Z,59.57
2023-04-17T03:17:01.630Z,62.07
2023-04-17T03:19:29.598Z,60.27
2023-04-17T03:21:57.459Z,64.43
2023-04-17T03:24:25.421Z,54.90
2023-04-17T03:26:54.166Z,56.93
2023-04-17T03:29:22.787Z,59.40
2023-04-17T03:31:50.853Z,60.47
2023-04-17T03:34:21.875Z,63.23
2023-04-17T03:36:50.905Z,63.37
2023-04-17T03:39:18.577Z,56.63
2023-04-17T03:41:46.271Z,54.73
2023-04-17T03:44:14.117Z,61.97
2023-04-17T03:46:41.754Z,58.63
2023-04-17T03:49:09.850Z,58.10
2023-04-17T03:51:38.315Z,63.13
2023-04-17T03:54:12.682Z,59.27
2023-04-17T03:56:42.335Z,56.77
2023-04-17T03:59:10.381Z,55.80
2023-04-17T04:01:44.196Z,58.90
2023-04-17T04:04:24.841Z,62.33
2023-04-17T04:07:01.657Z,61.73
2023-04-17T04:09:30.206Z,58.97
2023-04-17T04:11:59.122Z,58.13
2023-04-17T04:14:28.248Z,61.43
2023-04-17T04:16:56.271Z,56.77
2023-04-17T04:19:24.048Z,56.83
2023-04-17T04:21:53.747Z,60.00
2023-04-17T04:24:25.732Z,64.83
2023-04-17T04:26:53.874Z,52.27
2023-04-17T04:29:25.700Z,57.03
2023-04-17T04:31:59.857Z,58.90
2023-04-17T04:34:36.694Z,61.23
2023-04-17T04:37:04.542Z,62.47
2023-04-17T04:39:39.687Z,58.50
2023-04-17T04:42:10.113Z,60.50
2023-04-17T04:44:56.326Z,64.60
2023-04-17T04:47:27.668Z,59.50
2023-04-17T04:49:56.089Z,60.40
2023-04-17T04:52:24.442Z,61.73
2023-04-17T04:54:55.868Z,63.70
2023-04-17T04:57:24.776Z,68.90
2023-04-17T04:59:56.692Z,66.93
2023-04-17T05:02:34.201Z,63.90
2023-04-17T05:05:03.337Z,62.73
2023-04-17T05:07:33.530Z,60.07
2023-04-17T05:10:01.942Z,56.43
2023-04-17T05:12:35.205Z,67.77
2023-04-17T05:15:05.323Z,59.40
2023-04-17T05:17:34.245Z,60.63
2023-04-17T05:20:02.203Z,62.83
2023-04-17T05:22:31.967Z,58.17
2023-04-17T05:25:08.570Z,63.67
2023-04-17T05:27:36.392Z,56.30
2023-04-17T05:30:05.989Z,59.40
2023-04-17T05:32:35.339Z,59.17
2023-04-17T05:35:21.903Z,45.70
2023-04-17T05:37:52.722Z,51.90
2023-04-17T05:40:20.908Z,42.83
2023-04-17T05:42:50.479Z,43.57
2023-04-17T05:45:18.629Z,49.33
2023-04-17T05:47:46.781Z,42.37
2023-04-17T05:50:15.670Z,47.13
2023-04-17T05:52:43.446Z,52.33
2023-04-17T05:55:13.447Z,49.20
2023-04-17T05:57:41.349Z,50.40
2023-04-17T06:00:13.319Z,54.13
2023-04-17T06:02:51.150Z,54.73
2023-04-17T06:05:29.075Z,54.07
2023-04-17T06:07:57.039Z,53.47
2023-04-17T06:10:25.056Z,54.60
2023-04-17T06:12:54.240Z,47.53
2023-04-17T06:15:23.060Z,45.87
2023-04-17T06:17:50.977Z,49.47
2023-04-17T06:20:19.124Z,51.97
2023-04-17T06:22:47.120Z,52.17
2023-04-17T06:25:14.927Z,46.47
2023-04-17T06:27:43.272Z,47.80
2023-04-17T06:30:12.228Z,51.43
2023-04-17T06:32:49.450Z,44.97
2023-04-17T06:35:18.967Z,46.90
2023-04-17T06:37:55.133Z,44.67
2023-04-17T06:40:23.274Z,45.53
2023-04-17T06:42:52.336Z,47.23
2023-04-17T06:45:21.993Z,47.00
2023-04-17T06:47:49.913Z,51.40
2023-04-17T06:50:18.715Z,42.50
2023-04-17T06:52:46.567Z,44.67
2023-04-17T06:55:14.304Z,44.17
2023-04-17T06:57:42.024Z,46.40
2023-04-17T07:00:11.525Z,41.10
2023-04-17T07:02:39.331Z,47.40
2023-04-17T07:05:08.549Z,39.77
2023-04-17T07:07:36.642Z,37.60
2023-04-17T07:10:06.387Z,40.10
2023-04-17T07:12:34.636Z,38.13
2023-04-17T07:15:02.483Z,38.77
2023-04-17T07:17:30.490Z,46.50
2023-04-17T07:19:59.235Z,42.70
2023-04-17T07:22:27.491Z,42.27
2023-04-17T07:24:55.464Z,39.10
2023-04-17T07:27:23.271Z,44.17
2023-04-17T07:29:54.809Z,36.73
2023-04-17T07:32:26.865Z,38.70
2023-04-17T07:34:54.600Z,39.60
2023-04-17T07:37:22.517Z,41.37
2023-04-17T07:39:50.907Z,41.90
2023-04-17T07:42:18.550Z,40.33
2023-04-17T07:44:48.764Z,37.03
2023-04-17T07:47:16.608Z,36.67
2023-04-17T07:49:49.009Z,38.20
2023-04-17T07:52:18.302Z,39.50
2023-04-17T07:54:46.346Z,39.53
2023-04-17T07:57:15.679Z,38.23
2023-04-17T07:59:43.469Z,35.73
2023-04-17T08:02:11.494Z,37.40
2023-04-17T08:04:40.484Z,41.43
2023-04-17T08:07:10.848Z,36.80
2023-04-17T08:09:40.619Z,34.87
2023-04-17T08:12:09.894Z,37.57
2023-04-17T08:14:38.875Z,36.20
2023-04-17T08:17:07.865Z,38.33
2023-04-17T08:19:35.889Z,37.83
2023-04-17T08:22:06.357Z,37.30
2023-04-17T08:24:34.279Z,35.80
2023-04-17T08:27:02.703Z,34.87
2023-04-17T08:29:30.353Z,33.23
2023-04-17T08:32:13.442Z,36.53
2023-04-17T08:34:45.058Z,29.73
2023-04-17T08:37:13.158Z,33.70
2023-04-17T08:39:41.009Z,32.63
2023-04-17T08:42:14.784Z,34.10
2023-04-17T08:44:44.646Z,31.73
2023-04-17T08:47:19.020Z,34.43
2023-04-17T08:49:47.393Z,29.33
2023-04-17T08:52:15.312Z,30.93
2023-04-17T08:54:43.446Z,21.77
2023-04-17T08:57:11.189Z,21.40
2023-04-17T08:59:39.442Z,26.17
2023-04-17T09:02:09.697Z,27.17
2023-04-17T09:04:47.328Z,22.77
2023-04-17T09:07:15.808Z,24.80
2023-04-17T09:09:57.946Z,22.67
2023-04-17T09:12:27.358Z,26.17
2023-04-17T09:14:55.645Z,26.30
2023-04-17T09:17:23.563Z,24.80
2023-04-17T09:20:12.319Z,21.60
2023-04-17T09:22:41.584Z,21.73
2023-04-17T09:25:23.269Z,22.77
2023-04-17T09:27:51.300Z,24.30
2023-04-17T09:30:19.192Z,23.40
2023-04-17T09:32:47.453Z,21.10
2023-04-17T09:35:28.465Z,20.73
2023-04-17T09:37:59.603Z,18.63
2023-04-17T09:40:41.363Z,21.03
2023-04-17T09:43:11.195Z,21.60
2023-04-17T09:45:42.910Z,19.50
2023-04-17T09:48:13.973Z,19.00
2023-04-17T09:50:41.811Z,20.53
2023-04-17T09:53:09.804Z,21.37
2023-04-17T09:55:41.751Z,23.70
2023-04-17T09:58:10.698Z,17.87
2023-04-17T10:00:42.783Z,24.43
2023-04-17T10:03:15.951Z,22.93
2023-04-17T10:05:44.301Z,21.50
2023-04-17T10:08:12.330Z,17.07
2023-04-17T10:10:40.420Z,22.00
2023-04-17T10:13:12.908Z,17.97
2023-04-17T10:15:41.874Z,19.67
2023-04-17T10:18:25.551Z,17.43
2023-04-17T10:20:55.659Z,17.07
2023-04-17T10:23:35.337Z,18.30
2023-04-17T10:26:30.605Z,17.33
2023-04-17T10:28:58.940Z,18.63
2023-04-17T10:32:21.897Z,17.03
2023-04-17T10:34:50.100Z,15.13
2023-04-17T10:37:19.208Z,17.77
2023-04-17T10:40:12.485Z,18.97
2023-04-17T10:42:41.358Z,16.53
2023-04-17T10:45:20.199Z,15.73
2023-04-17T10:47:59.564Z,18.17
2023-04-17T10:50:30.608Z,15.33
2023-04-17T10:52:59.095Z,15.77
2023-04-17T10:55:27.931Z,13.93
2023-04-17T10:58:05.138Z,17.60
2023-04-17T11:00:38.580Z,18.37
2023-04-17T11:03:08.155Z,13.80
2023-04-17T11:05:44.326Z,14.80
2023-04-17T11:08:12.403Z,14.60
2023-04-17T11:10:40.879Z,10.40
2023-04-17T11:13:11.784Z,12.03
2023-04-17T11:15:39.848Z,15.13
2023-04-17T11:18:08.325Z,14.60
2023-04-17T11:20:38.040Z,12.73
2023-04-17T11:23:07.881Z,14.03
2023-04-17T11:25:38.525Z,16.33
2023-04-17T11:28:10.960Z,13.20
2023-04-17T11:30:45.697Z,11.90
2023-04-17T11:33:16.482Z,12.07
2023-04-17T11:35:45.560Z,15.23
2023-04-17T11:38:24.617Z,14.23
2023-04-17T11:41:01.492Z,12.60
2023-04-17T11:43:38.523Z,12.23
2023-04-17T11:46:10.435Z,14.13
2023-04-17T11:48:41.119Z,11.50
2023-04-17T11:51:09.218Z,9.60
2023-04-17T11:53:36.937Z,10.27
2023-04-17T11:56:19.197Z,9.10
2023-04-17T11:58:54.322Z,8.10
2023-04-17T12:01:27.171Z,10.70
2023-04-17T12:04:00.048Z,8.23
2023-04-17T12:06:39.082Z,9.90
2023-04-17T12:09:18.629Z,10.37
2023-04-17T12:11:46.691Z,13.20
2023-04-17T12:14:14.579Z,11.27
2023-04-17T12:16:42.531Z,11.70
2023-04-17T12:19:13.283Z,10.10
2023-04-17T12:21:41.100Z,11.70
2023-04-17T12:24:09.015Z,11.17
2023-04-17T12:26:36.806Z,11.80
2023-04-17T12:29:04.577Z,10.30
2023-04-17T12:31:32.256Z,13.83
2023-04-17T12:34:00.130Z,13.63
2023-04-17T12:36:27.890Z,9.73
2023-04-17T12:38:55.630Z,14.30
2023-04-17T12:41:25.678Z,10.50
2023-04-17T12:43:54.821Z,14.00
2023-04-17T12:46:22.820Z,10.30
2023-04-17T12:48:55.767Z,12.20
2023-04-17T12:51:23.541Z,13.23
2023-04-17T12:53:53.206Z,14.70
2023-04-17T12:56:21.414Z,11.80
2023-04-17T12:58:49.501Z,13.33
2023-04-17T13:01:17.771Z,13.93
2023-04-17T13:03:45.653Z,12.13
2023-04-17T13:06:16.010Z,13.37
2023-04-17T13:08:43.725Z,12.90
2023-04-17T13:11:11.622Z,10.80
2023-04-17T13:13:39.349Z,9.70
2023-04-17T13:16:07.754Z,16.40
2023-04-17T13:18:35.647Z,11.27
2023-04-17T13:21:03.703Z,12.93
2023-04-17T13:23:31.528Z,11.30
2023-04-17T13:25:59.205Z,14.63
2023-04-17T13:28:26.871Z,11.80
2023-04-17T13:30:54.580Z,11.83
2023-04-17T13:33:22.328Z,12.30
2023-04-17T13:35:52.776Z,10.30
2023-04-17T13:38:20.534Z,12.73
2023-04-17T13:40:48.454Z,12.23
2023-04-17T13:43:16.310Z,11.60
2023-04-17T13:45:44.309Z,14.20
2023-04-17T13:48:12.010Z,13.57
2023-04-17T13:50:40.035Z,16.13
2023-04-17T13:53:09.501Z,11.20
2023-04-17T13:55:38.994Z,11.53
2023-04-17T13:58:06.617Z,14.13
2023-04-17T14:00:34.376Z,11.53
2023-04-17T14:03:02.504Z,12.00
2023-04-17T14:05:33.481Z,10.33
2023-04-17T14:08:01.646Z,10.90
2023-04-17T14:10:29.429Z,10.93
2023-04-17T14:12:57.298Z,10.27
2023-04-17T14:15:25.105Z,11.47
2023-04-17T14:17:54.538Z,15.30
2023-04-17T14:20:22.425Z,10.77
2023-04-17T14:22:51.126Z,15.43
2023-04-17T14:25:19.079Z,15.03
2023-04-17T14:27:47.060Z,11.07
2023-04-17T14:30:15.169Z,9.57
2023-04-17T14:32:42.940Z,12.50
2023-04-17T14:35:10.834Z,13.13
2023-04-17T14:37:38.931Z,10.80
2023-04-17T14:40:08.627Z,9.23
2023-04-17T14:42:47.326Z,14.47
2023-04-17T14:45:19.086Z,11.27
2023-04-17T14:47:46.932Z,16.63
2023-04-17T14:50:14.959Z,11.60
2023-04-17T14:52:42.623Z,9.73
2023-04-17T14:55:12.413Z,11.77
2023-04-17T14:57:40.742Z,11.80
2023-04-17T15:00:09.855Z,10.73
2023-04-17T15:02:39.424Z,13.13
2023-04-17T15:05:09.246Z,8.20
2023-04-17T15:07:37.162Z,9.40
2023-04-17T15:10:06.061Z,9.90
2023-04-17T15:12:34.134Z,15.40
2023-04-17T15:15:02.120Z,17.53
2023-04-17T15:17:30.104Z,10.20
2023-04-17T15:20:00.299Z,12.03
2023-04-17T15:22:33.715Z,11.50
2023-04-17T15:25:01.475Z,9.60
2023-04-17T15:27:29.193Z,11.67
2023-04-17T15:29:56.923Z,12.93
2023-04-17T15:32:24.896Z,9.40
2023-04-17T15:34:53.353Z,12.87
2023-04-17T15:37:21.535Z,12.73
2023-04-17T15:39:49.255Z,12.03
2023-04-17T15:42:17.680Z,17.67
2023-04-17T15:44:46.006Z,12.77
2023-04-17T15:47:13.706Z,10.70
2023-04-17T15:49:41.494Z,12.63
2023-04-17T15:52:09.370Z,11.47
2023-04-17T15:54:37.194Z,9.43
2023-04-17T15:57:04.980Z,13.77
2023-04-17T15:59:33.364Z,13.50
2023-04-17T16:02:01.361Z,13.33
2023-04-17T16:04:29.338Z,9.30
2023-04-17T16:06:57.151Z,16.90
2023-04-17T16:09:25.225Z,13.33
2023-04-17T16:11:53.298Z,10.53
2023-04-17T16:14:23.071Z,13.80
2023-04-17T16:16:51.217Z,12.80
2023-04-17T16:19:20.602Z,10.63
2023-04-17T16:21:49.473Z,15.10
2023-04-17T16:24:17.476Z,10.80
2023-04-17T16:26:45.512Z,12.90
2023-04-17T16:29:13.596Z,11.87
2023-04-17T16:31:41.665Z,10.00
2023-04-17T16:34:09.809Z,15.70
2023-04-17T16:36:37.660Z,10.17
2023-04-17T16:39:07.452Z,11.07
2023-04-17T16:41:36.266Z,9.93
2023-04-17T16:44:05.129Z,10.53
2023-04-17T16:46:45.587Z,13.63
2023-04-17T16:49:20.969Z,8.40
2023-04-17T16:51:48.914Z,16.33
2023-04-17T16:54:18.843Z,11.43
2023-04-17T16:56:50.707Z,12.00
2023-04-17T16:59:18.692Z,12.27
2023-04-17T17:01:49.868Z,11.00
2023-04-17T17:04:17.578Z,9.10
2023-04-17T17:06:45.281Z,12.97
2023-04-17T17:09:13.408Z,11.60
2023-04-17T17:11:41.679Z,11.43
2023-04-17T17:14:09.527Z,14.90
2023-04-17T17:16:37.356Z,10.40
2023-04-17T17:19:06.031Z,13.47
2023-04-17T17:21:33.946Z,13.30
2023-04-17T17:24:01.712Z,12.73
2023-04-17T17:26:29.424Z,13.07
2023-04-17T17:28:57.221Z,11.63
2023-04-17T17:31:24.961Z,13.60
2023-04-17T17:33:56.262Z,18.60
2023-04-17T17:36:24.310Z,21.83
2023-04-17T17:38:55.890Z,12.23
2023-04-17T17:41:27.533Z,13.70
2023-04-17T17:43:56.732Z,14.23
2023-04-17T17:46:24.759Z,12.87
2023-04-17T17:48:52.444Z,12.60
2023-04-17T17:51:22.749Z,14.67
2023-04-17T17:53:50.513Z,15.60
2023-04-17T17:56:18.954Z,15.53
2023-04-17T17:58:46.632Z,12.70
2023-04-17T18:01:14.458Z,15.47
2023-04-17T18:03:42.349Z,17.67
2023-04-17T18:06:10.191Z,12.50
2023-04-17T18:08:38.549Z,14.93
2023-04-17T18:11:06.443Z,14.33
2023-04-17T18:13:34.322Z,22.17
2023-04-17T18:16:05.147Z,16.40
2023-04-17T18:18:33.038Z,11.50
2023-04-17T18:21:00.858Z,13.30
2023-04-17T18:23:28.843Z,13.90
2023-04-17T18:26:04.227Z,15.67
2023-04-17T18:28:33.427Z,12.70
2023-04-17T18:31:01.385Z,13.40
2023-04-17T18:33:29.154Z,13.40
2023-04-17T18:35:56.986Z,12.10
2023-04-17T18:38:25.241Z,13.97
2023-04-17T18:40:58.476Z,13.67
2023-04-17T18:43:28.964Z,15.40
2023-04-17T18:45:57.013Z,15.93
2023-04-17T18:48:25.690Z,14.83
2023-04-17T18:50:53.626Z,13.80
2023-04-17T18:53:21.595Z,15.93
2023-04-17T18:55:49.598Z,15.77
2023-04-17T18:58:17.381Z,17.17
2023-04-17T19:00:45.101Z,17.70
2023-04-17T19:03:12.999Z,14.07
2023-04-17T19:05:40.686Z,16.53
2023-04-17T19:08:09.684Z,13.97
2023-04-17T19:10:39.949Z,17.13
2023-04-17T19:13:09.891Z,16.67
2023-04-17T19:15:38.128Z,17.73
2023-04-17T19:18:06.777Z,21.50
2023-04-17T19:20:36.413Z,18.60
2023-04-17T19:23:04.685Z,14.63
2023-04-17T19:25:32.560Z,16.27
2023-04-17T19:28:00.288Z,18.93
2023-04-17T19:30:28.033Z,16.90
2023-04-17T19:32:55.922Z,17.43
2023-04-17T19:35:23.741Z,16.93
2023-04-17T19:37:51.565Z,14.97
2023-04-17T19:40:24.995Z,16.73
2023-04-17T19:42:54.326Z,15.47
2023-04-17T19:45:22.114Z,15.83
2023-04-17T19:47:55.120Z,17.23
2023-04-17T19:50:27.407Z,14.40
2023-04-17T19:52:57.825Z,15.23
2023-04-17T19:55:25.852Z,16.03
2023-04-17T19:57:56.280Z,15.33
2023-04-17T20:00:29.444Z,16.17
2023-04-17T20:02:58.144Z,16.70
2023-04-17T20:05:26.470Z,14.83
2023-04-17T20:07:55.540Z,15.03
2023-04-17T20:10:23.671Z,17.50
2023-04-17T20:12:51.509Z,15.30
2023-04-17T20:15:22.169Z,16.60
2023-04-17T20:17:51.565Z,16.50
2023-04-17T20:20:26.426Z,15.43
2023-04-17T20:22:58.370Z,15.13
2023-04-17T20:25:35.753Z,15.43
2023-04-17T20:28:16.362Z,19.50
2023-04-17T20:30:56.866Z,16.07
2023-04-17T20:33:32.979Z,13.07
2023-04-17T20:36:03.550Z,13.97
2023-04-17T20:38:34.391Z,20.50
2023-04-17T20:41:10.788Z,20.93
2023-04-17T20:43:40.030Z,17.00
2023-04-17T20:46:08.113Z,15.10
2023-04-17T20:48:39.146Z,15.00
2023-04-17T20:51:12.522Z,14.53
2023-04-17T20:53:55.876Z,13.13
2023-04-17T20:56:28.542Z,13.93
2023-04-17T20:58:59.177Z,14.20
2023-04-17T21:01:26.960Z,13.27
2023-04-17T21:03:55.013Z,15.33
2023-04-17T21:06:23.076Z,17.30
2023-04-17T21:08:54.765Z,16.37
2023-04-17T21:11:22.819Z,11.57
2023-04-17T21:13:50.569Z,11.77
2023-04-17T21:16:23.108Z,16.93
2023-04-17T21:18:50.963Z,14.33
2023-04-17T21:21:18.989Z,16.90
2023-04-17T21:23:46.805Z,13.17
2023-04-17T21:26:14.668Z,12.97
2023-04-17T21:28:43.180Z,16.33
2023-04-17T21:31:15.760Z,13.10
2023-04-17T21:33:43.449Z,16.00
2023-04-17T21:36:11.524Z,14.47
2023-04-17T21:38:39.577Z,20.13
2023-04-17T21:41:09.280Z,13.40
2023-04-17T21:43:37.393Z,14.03
2023-04-17T21:46:12.444Z,12.77
2023-04-17T21:48:43.777Z,12.10
2023-04-17T21:51:11.663Z,13.73
2023-04-17T21:53:39.484Z,12.33
2023-04-17T21:56:08.720Z,9.57
2023-04-17T21:58:36.430Z,11.13
2023-04-17T22:01:04.474Z,12.47
2023-04-17T22:03:33.141Z,13.37
2023-04-17T22:06:01.029Z,12.43
2023-04-17T22:08:28.733Z,13.20
2023-04-17T22:10:56.507Z,13.60
2023-04-17T22:13:25.093Z,11.97
2023-04-17T22:15:53.128Z,10.67
2023-04-17T22:18:21.850Z,14.07
2023-04-17T22:20:49.637Z,12.17
2023-04-17T22:23:17.351Z,12.80
2023-04-17T22:25:45.279Z,13.60
2023-04-17T22:28:13.392Z,10.50
2023-04-17T22:30:41.382Z,12.37
2023-04-17T22:33:09.132Z,13.90
2023-04-17T22:35:37.042Z,10.40
2023-04-17T22:38:04.853Z,13.83
2023-04-17T22:40:32.626Z,15.10
2023-04-17T22:43:03.465Z,10.37
2023-04-17T22:45:31.412Z,11.20
2023-04-17T22:47:59.332Z,12.40
2023-04-17T22:50:30.444Z,10.27
2023-04-17T22:52:58.779Z,14.73
2023-04-17T22:55:27.440Z,13.03
2023-04-17T22:57:57.728Z,18.00
2023-04-17T23:00:25.817Z,13.37
2023-04-17T23:02:53.554Z,10.97
2023-04-17T23:05:21.324Z,10.67
2023-04-17T23:07:49.214Z,13.93
2023-04-17T23:10:17.011Z,10.27
2023-04-17T23:12:44.883Z,10.37
2023-04-17T23:15:13.346Z,9.77
2023-04-17T23:17:41.148Z,13.43
2023-04-17T23:20:09.942Z,12.90
2023-04-17T23:22:37.966Z,14.90
2023-04-17T23:25:07.222Z,10.33
2023-04-17T23:27:34.893Z,13.17
2023-04-17T23:30:03.778Z,11.33
2023-04-17T23:32:31.555Z,13.53
2023-04-17T23:34:59.487Z,13.53
2023-04-17T23:37:27.071Z,11.27
2023-04-17T23:39:54.860Z,16.97
2023-04-17T23:42:22.559Z,12.50
2023-04-17T23:44:50.316Z,9.80
2023-04-17T23:47:18.266Z,12.53
2023-04-17T23:49:47.534Z,12.80
2023-04-17T23:52:19.635Z,9.80
2023-04-17T23:54:47.406Z,14.23
2023-04-17T23:57:15.080Z,13.30
2023-04-17T23:59:42.916Z,10.10
